createdAt,value
2023-05-09T00:01:19.962Z,98746.50
2023-05-09T00:03:47.000Z,98739.00
2023-05-09T00:06:13.564Z,98738.84
2023-05-09T00:08:41.170Z,98745.19
2023-05-09T00:11:07.704Z,98758.22
2023-05-09T00:13:34.720Z,98749.44
2023-05-09T00:16:01.321Z,98739.03
2023-05-09T00:18:28.460Z,98749.97
2023-05-09T00:20:54.901Z,98733.91
2023-05-09T00:23:21.433Z,98738.81
2023-05-09T00:25:48.002Z,98732.91
2023-05-09T00:28:14.497Z,98727.00
2023-05-09T00:30:40.973Z,98724.13
2023-05-09T00:33:07.568Z,98720.22
2023-05-09T00:35:34.811Z,98709.66
2023-05-09T00:38:01.407Z,98717.16
2023-05-09T00:40:27.871Z,98719.44
2023-05-09T00:42:55.961Z,98724.00
2023-05-09T00:45:22.425Z,98711.13
2023-05-09T00:47:48.945Z,98701.28
2023-05-09T00:50:16.139Z,98698.25
2023-05-09T00:52:42.836Z,98697.19
2023-05-09T00:55:10.455Z,98692.72
2023-05-09T00:57:37.030Z,98689.84
2023-05-09T01:00:04.510Z,98685.81
2023-05-09T01:02:32.116Z,98696.59
2023-05-09T01:04:58.938Z,98691.94
2023-05-09T01:07:52.874Z,98683.53
2023-05-09T01:10:34.510Z,98692.75
2023-05-09T01:13:07.541Z,98689.44
2023-05-09T01:15:39.601Z,98691.66
2023-05-09T01:18:14.639Z,98684.78
2023-05-09T01:21:01.779Z,98684.38
2023-05-09T01:23:37.453Z,98683.97
2023-05-09T01:26:08.455Z,98680.00
2023-05-09T01:28:56.601Z,98673.31
2023-05-09T01:31:24.642Z,98682.53
2023-05-09T01:33:56.497Z,98677.44
2023-05-09T01:36:30.143Z,98669.84
2023-05-09T01:38:58.515Z,98663.75
2023-05-09T01:41:29.720Z,98660.72
2023-05-09T01:43:59.112Z,98661.78
2023-05-09T01:46:27.125Z,98671.97
2023-05-09T01:48:54.833Z,98665.28
2023-05-09T01:51:21.726Z,98666.13
2023-05-09T01:53:50.469Z,98673.28
2023-05-09T01:56:17.873Z,98668.34
2023-05-09T01:58:48.174Z,98668.19
2023-05-09T02:01:15.975Z,98671.84
2023-05-09T02:03:45.250Z,98675.53
2023-05-09T02:06:12.679Z,98672.88
2023-05-09T02:08:39.685Z,98671.25
2023-05-09T02:11:07.380Z,98665.75
2023-05-09T02:13:33.885Z,98664.31
2023-05-09T02:16:01.304Z,98666.16
2023-05-09T02:18:29.420Z,98657.81
2023-05-09T02:20:55.936Z,98666.78
2023-05-09T02:23:22.461Z,98656.38
2023-05-09T02:25:49.752Z,98662.09
2023-05-09T02:28:18.470Z,98656.97
2023-05-09T02:30:46.512Z,98660.84
2023-05-09T02:33:14.149Z,98657.81
2023-05-09T02:35:44.100Z,98658.41
2023-05-09T02:38:13.156Z,98656.19
2023-05-09T02:40:42.216Z,98656.19
2023-05-09T02:43:08.772Z,98654.34
2023-05-09T02:45:35.310Z,98654.16
2023-05-09T02:48:02.879Z,98649.28
2023-05-09T02:50:29.633Z,98655.56
2023-05-09T02:52:56.206Z,98651.88
2023-05-09T02:55:22.805Z,98641.09
2023-05-09T02:57:51.922Z,98642.94
2023-05-09T03:00:28.155Z,98640.84
2023-05-09T03:02:54.837Z,98644.31
2023-05-09T03:05:21.537Z,98634.56
2023-05-09T03:07:48.737Z,98624.38
2023-05-09T03:10:15.421Z,98626.84
2023-05-09T03:12:43.674Z,98629.03
2023-05-09T03:15:10.817Z,98625.00
2023-05-09T03:17:40.029Z,98618.47
2023-05-09T03:20:07.906Z,98616.66
2023-05-09T03:22:34.440Z,98616.81
2023-05-09T03:25:03.614Z,98617.63
2023-05-09T03:27:30.228Z,98620.66
2023-05-09T03:29:56.761Z,98618.00
2023-05-09T03:32:23.309Z,98614.75
2023-05-09T03:34:49.822Z,98614.72
2023-05-09T03:37:16.459Z,98608.63
2023-05-09T03:39:43.728Z,98614.13
2023-05-09T03:42:10.478Z,98605.59
2023-05-09T03:44:36.913Z,98612.34
2023-05-09T03:47:03.445Z,98612.16
2023-05-09T03:49:36.335Z,98608.31
2023-05-09T03:52:03.566Z,98608.53
2023-05-09T03:54:30.603Z,98610.38
2023-05-09T03:56:57.282Z,98605.06
2023-05-09T03:59:24.116Z,98610.38
2023-05-09T04:01:50.798Z,98613.22
2023-05-09T04:04:18.078Z,98609.34
2023-05-09T04:06:44.955Z,98615.66
2023-05-09T04:09:11.971Z,98616.66
2023-05-09T04:11:41.399Z,98625.22
2023-05-09T04:14:11.083Z,98623.19
2023-05-09T04:16:37.723Z,98624.41
2023-05-09T04:19:04.444Z,98622.41
2023-05-09T04:21:31.830Z,98624.00
2023-05-09T04:24:00.672Z,98625.03
2023-05-09T04:26:38.330Z,98616.09
2023-05-09T04:29:07.657Z,98616.47
2023-05-09T04:31:34.757Z,98612.81
2023-05-09T04:34:01.892Z,98606.91
2023-05-09T04:36:33.755Z,98608.75
2023-05-09T04:39:00.769Z,98610.78
2023-05-09T04:41:28.612Z,98611.38
2023-05-09T04:43:55.771Z,98600.59
2023-05-09T04:46:25.937Z,98603.63
2023-05-09T04:48:53.308Z,98597.94
2023-05-09T04:51:20.454Z,98594.66
2023-05-09T04:53:47.012Z,98594.25
2023-05-09T04:56:15.367Z,98591.19
2023-05-09T04:58:43.564Z,98595.06
2023-05-09T05:01:11.067Z,98580.81
2023-05-09T05:03:38.718Z,98583.25
2023-05-09T05:06:06.553Z,98582.25
2023-05-09T05:08:35.303Z,98570.97
2023-05-09T05:11:01.921Z,98577.91
2023-05-09T05:13:28.448Z,98570.53
2023-05-09T05:15:58.947Z,98565.44
2023-05-09T05:18:25.842Z,98573.38
2023-05-09T05:20:53.050Z,98574.19
2023-05-09T05:23:20.247Z,98573.56
2023-05-09T05:25:48.775Z,98567.63
2023-05-09T05:28:15.511Z,98561.13
2023-05-09T05:30:42.346Z,98557.84
2023-05-09T05:33:08.881Z,98562.09
2023-05-09T05:35:35.535Z,98568.19
2023-05-09T05:38:02.197Z,98564.53
2023-05-09T05:40:28.933Z,98569.72
2023-05-09T05:42:56.549Z,98558.03
2023-05-09T05:45:24.025Z,98561.19
2023-05-09T05:47:54.410Z,98561.84
2023-05-09T05:50:22.438Z,98559.50
2023-05-09T05:52:49.314Z,98570.03
2023-05-09T05:55:18.099Z,98568.03
2023-05-09T05:57:46.861Z,98562.72
2023-05-09T06:00:15.236Z,98565.75
2023-05-09T06:02:48.912Z,98556.63
2023-05-09T06:05:50.994Z,98557.72
2023-05-09T06:08:17.854Z,98545.41
2023-05-09T06:10:44.462Z,98546.91
2023-05-09T06:13:11.041Z,98537.31
2023-05-09T06:15:40.900Z,98543.88
2023-05-09T06:18:08.758Z,98533.25
2023-05-09T06:20:36.038Z,98538.59
2023-05-09T06:23:02.556Z,98537.50
2023-05-09T06:25:29.400Z,98537.63
2023-05-09T06:27:55.927Z,98537.78
2023-05-09T06:30:26.120Z,98525.94
2023-05-09T06:32:53.726Z,98530.66
2023-05-09T06:35:20.580Z,98530.66
2023-05-09T06:38:01.663Z,98526.16
2023-05-09T06:40:32.407Z,98513.75
2023-05-09T06:42:58.858Z,98510.72
2023-05-09T06:45:25.964Z,98516.06
2023-05-09T06:47:52.526Z,98511.19
2023-05-09T06:50:19.103Z,98518.50
2023-05-09T06:52:45.612Z,98505.41
2023-05-09T06:55:12.360Z,98513.22
2023-05-09T06:57:40.543Z,98506.16
2023-05-09T07:00:07.775Z,98499.19
2023-05-09T07:02:34.325Z,98496.53
2023-05-09T07:05:01.278Z,98496.66
2023-05-09T07:07:27.920Z,98490.84
2023-05-09T07:10:00.613Z,98492.53
2023-05-09T07:12:34.158Z,98483.47
2023-05-09T07:15:00.717Z,98487.22
2023-05-09T07:17:27.348Z,98486.16
2023-05-09T07:19:53.920Z,98488.47
2023-05-09T07:22:20.408Z,98486.38
2023-05-09T07:24:47.124Z,98466.56
2023-05-09T07:27:13.941Z,98466.00
2023-05-09T07:29:40.549Z,98464.97
2023-05-09T07:32:07.128Z,98458.03
2023-05-09T07:34:33.640Z,98445.81
2023-05-09T07:37:00.288Z,98444.47
2023-05-09T07:39:26.742Z,98446.81
2023-05-09T07:41:53.232Z,98453.09
2023-05-09T07:44:19.685Z,98461.19
2023-05-09T07:46:46.120Z,98464.44
2023-05-09T07:49:12.580Z,98458.81
2023-05-09T07:51:39.020Z,98456.75
2023-05-09T07:54:05.628Z,98458.53
2023-05-09T07:56:32.146Z,98455.19
2023-05-09T07:58:58.599Z,98440.00
2023-05-09T08:01:25.159Z,98449.69
2023-05-09T08:03:52.024Z,98440.84
2023-05-09T08:06:18.544Z,98436.38
2023-05-09T08:08:45.039Z,98425.47
2023-05-09T08:11:11.508Z,98426.53
2023-05-09T08:13:38.048Z,98413.19
2023-05-09T08:16:04.875Z,98413.25
2023-05-09T08:18:31.483Z,98402.31
2023-05-09T08:20:59.551Z,98409.44
2023-05-09T08:23:26.557Z,98400.00
2023-05-09T08:25:54.461Z,98397.69
2023-05-09T08:28:24.098Z,98402.47
2023-05-09T08:30:51.912Z,98409.00
2023-05-09T08:33:19.034Z,98396.84
2023-05-09T08:35:46.204Z,98395.78
2023-05-09T08:38:12.739Z,98385.28
2023-05-09T08:40:41.192Z,98384.16
2023-05-09T08:43:08.251Z,98375.25
2023-05-09T08:45:49.372Z,98378.28
2023-05-09T08:48:16.957Z,98373.25
2023-05-09T08:50:44.332Z,98356.31
2023-05-09T08:53:12.305Z,98361.09
2023-05-09T08:55:39.124Z,98353.75
2023-05-09T08:58:06.400Z,98346.41
2023-05-09T09:00:33.977Z,98347.72
2023-05-09T09:03:03.941Z,98352.88
2023-05-09T09:05:41.359Z,98346.34
2023-05-09T09:08:10.807Z,98340.34
2023-05-09T09:10:41.927Z,98343.16
2023-05-09T09:13:10.150Z,98338.81
2023-05-09T09:15:38.542Z,98336.16
2023-05-09T09:18:11.543Z,98326.78
2023-05-09T09:20:45.717Z,98318.66
2023-05-09T09:23:16.374Z,98323.13
2023-05-09T09:25:46.165Z,98309.88
2023-05-09T09:28:12.735Z,98309.59
2023-05-09T09:30:47.893Z,98316.91
2023-05-09T09:33:22.496Z,98306.41
2023-05-09T09:35:50.984Z,98307.13
2023-05-09T09:38:22.166Z,98304.22
2023-05-09T09:40:52.051Z,98296.91
2023-05-09T09:43:19.612Z,98286.69
2023-05-09T09:45:50.628Z,98292.28
2023-05-09T09:48:17.113Z,98290.63
2023-05-09T09:50:43.594Z,98293.63
2023-05-09T09:53:10.245Z,98282.72
2023-05-09T09:55:36.930Z,98278.88
2023-05-09T09:58:03.450Z,98276.91
2023-05-09T10:00:32.042Z,98271.44
2023-05-09T10:02:59.508Z,98268.91
2023-05-09T10:05:28.583Z,98259.50
2023-05-09T10:08:00.970Z,98260.84
2023-05-09T10:10:29.581Z,98263.19
2023-05-09T10:13:02.312Z,98251.28
2023-05-09T10:15:41.431Z,98246.78
2023-05-09T10:18:14.593Z,98244.91
2023-05-09T10:20:43.606Z,98244.09
2023-05-09T10:23:12.010Z,98240.00
2023-05-09T10:25:44.535Z,98232.72
2023-05-09T10:28:13.062Z,98234.09
2023-05-09T10:31:08.759Z,98230.72
2023-05-09T10:33:43.566Z,98224.44
2023-05-09T10:36:11.118Z,98218.66
2023-05-09T10:38:38.183Z,98209.28
2023-05-09T10:41:05.447Z,98210.66
2023-05-09T10:43:34.751Z,98203.66
2023-05-09T10:46:05.075Z,98203.19
2023-05-09T10:48:36.235Z,98204.84
2023-05-09T10:51:03.819Z,98195.16
2023-05-09T10:53:45.731Z,98197.53
2023-05-09T10:56:32.526Z,98187.72
2023-05-09T10:59:00.152Z,98174.63
2023-05-09T11:01:38.951Z,98167.38
2023-05-09T11:04:14.377Z,98168.16
2023-05-09T11:06:52.020Z,98156.91
2023-05-09T11:09:34.039Z,98159.28
2023-05-09T11:12:09.198Z,98150.44
2023-05-09T11:14:35.611Z,98143.16
2023-05-09T11:17:04.194Z,98138.47
2023-05-09T11:19:46.628Z,98137.31
2023-05-09T11:22:15.021Z,98136.91
2023-05-09T11:24:46.987Z,98135.31
2023-05-09T11:27:19.035Z,98119.91
2023-05-09T11:29:56.737Z,98122.78
2023-05-09T11:32:30.801Z,98114.19
2023-05-09T11:35:07.343Z,98097.94
2023-05-09T11:37:33.877Z,98092.78
2023-05-09T11:40:04.715Z,98103.78
2023-05-09T11:42:31.894Z,98086.59
2023-05-09T11:44:59.267Z,98087.59
2023-05-09T11:47:26.485Z,98081.53
2023-05-09T11:49:53.112Z,98083.34
2023-05-09T11:52:20.869Z,98077.63
2023-05-09T11:54:47.786Z,98068.88
2023-05-09T11:57:17.458Z,98069.56
2023-05-09T11:59:47.588Z,98067.84
2023-05-09T12:02:14.416Z,98057.41
2023-05-09T12:04:40.992Z,98055.84
2023-05-09T12:07:07.570Z,98049.25
2023-05-09T12:09:38.103Z,98049.63
2023-05-09T12:12:14.308Z,98051.75
2023-05-09T12:14:41.667Z,98046.34
2023-05-09T12:17:08.325Z,98044.03
2023-05-09T12:19:35.656Z,98041.34
2023-05-09T12:22:03.819Z,98029.84
2023-05-09T12:24:31.301Z,98027.13
2023-05-09T12:26:59.417Z,98025.78
2023-05-09T12:29:27.058Z,98014.28
2023-05-09T12:31:54.475Z,98007.56
2023-05-09T12:34:21.377Z,98012.41
2023-05-09T12:36:51.632Z,98011.31
2023-05-09T12:39:19.393Z,98008.63
2023-05-09T12:41:53.895Z,97993.91
2023-05-09T12:44:29.281Z,98007.03
2023-05-09T12:47:01.388Z,98004.34
2023-05-09T12:49:29.001Z,97994.63
2023-05-09T12:51:57.549Z,98001.84
2023-05-09T12:54:26.652Z,97995.09
2023-05-09T12:56:56.602Z,97991.91
2023-05-09T12:59:25.985Z,97992.69
2023-05-09T13:01:54.977Z,97995.63
2023-05-09T13:04:22.018Z,97995.63
2023-05-09T13:06:53.787Z,97991.81
2023-05-09T13:09:20.378Z,97984.06
2023-05-09T13:11:47.694Z,97987.84
2023-05-09T13:14:14.922Z,97983.28
2023-05-09T13:16:41.413Z,97979.78
2023-05-09T13:19:08.202Z,97968.81
2023-05-09T13:21:35.431Z,97970.59
2023-05-09T13:24:03.136Z,97962.84
2023-05-09T13:26:29.742Z,97961.72
2023-05-09T13:28:56.447Z,97957.72
2023-05-09T13:31:23.232Z,97956.22
2023-05-09T13:33:51.862Z,97957.63
2023-05-09T13:36:19.150Z,97946.06
2023-05-09T13:38:45.797Z,97946.34
2023-05-09T13:41:13.726Z,97940.91
2023-05-09T13:43:42.444Z,97937.13
2023-05-09T13:46:09.041Z,97927.78
2023-05-09T13:48:35.575Z,97924.56
2023-05-09T13:51:03.642Z,97926.97
2023-05-09T13:53:30.159Z,97918.44
2023-05-09T13:55:57.122Z,97911.56
2023-05-09T13:58:23.765Z,97923.34
2023-05-09T14:00:50.473Z,97919.78
2023-05-09T14:03:16.934Z,97917.34
2023-05-09T14:05:43.482Z,97916.53
2023-05-09T14:08:10.016Z,97907.44
2023-05-09T14:10:36.714Z,97902.44
2023-05-09T14:13:03.246Z,97898.13
2023-05-09T14:15:29.920Z,97889.88
2023-05-09T14:17:56.921Z,97888.28
2023-05-09T14:20:23.477Z,97882.97
2023-05-09T14:22:49.947Z,97892.59
2023-05-09T14:25:16.904Z,97873.06
2023-05-09T14:27:43.495Z,97870.38
2023-05-09T14:30:10.470Z,97867.72
2023-05-09T14:32:37.143Z,97873.25
2023-05-09T14:35:04.030Z,97871.91
2023-05-09T14:37:30.556Z,97867.31
2023-05-09T14:39:57.048Z,97865.34
2023-05-09T14:42:23.577Z,97866.97
2023-05-09T14:44:50.294Z,97866.94
2023-05-09T14:47:16.905Z,97858.13
2023-05-09T14:49:43.378Z,97854.59
2023-05-09T14:52:10.954Z,97853.19
2023-05-09T14:54:37.463Z,97842.31
2023-05-09T14:57:05.287Z,97838.75
2023-05-09T14:59:32.132Z,97846.50
2023-05-09T15:01:58.803Z,97843.72
2023-05-09T15:04:28.278Z,97849.72
2023-05-09T15:06:54.854Z,97861.78
2023-05-09T15:09:22.462Z,97852.19
2023-05-09T15:11:49.386Z,97856.75
2023-05-09T15:14:16.574Z,97863.56
2023-05-09T15:16:43.322Z,97874.63
2023-05-09T15:19:10.018Z,97873.59
2023-05-09T15:21:36.449Z,97872.06
2023-05-09T15:24:03.460Z,97871.66
2023-05-09T15:26:30.135Z,97871.38
2023-05-09T15:28:56.575Z,97873.88
2023-05-09T15:31:23.896Z,97875.16
2023-05-09T15:33:50.758Z,97870.00
2023-05-09T15:36:17.312Z,97871.44
2023-05-09T15:38:48.150Z,97865.38
2023-05-09T15:41:15.327Z,97859.06
2023-05-09T15:43:42.037Z,97857.69
2023-05-09T15:46:08.520Z,97857.69
2023-05-09T15:48:34.980Z,97853.56
2023-05-09T15:51:02.632Z,97853.09
2023-05-09T15:53:29.353Z,97845.63
2023-05-09T15:55:56.889Z,97851.44
2023-05-09T15:58:23.505Z,97839.75
2023-05-09T16:00:50.780Z,97841.97
2023-05-09T16:03:18.175Z,97832.28
2023-05-09T16:05:45.021Z,97834.53
2023-05-09T16:08:11.973Z,97841.63
2023-05-09T16:10:38.438Z,97842.91
2023-05-09T16:13:04.974Z,97856.00
2023-05-09T16:15:31.465Z,97855.88
2023-05-09T16:17:57.870Z,97852.56
2023-05-09T16:20:24.471Z,97851.16
2023-05-09T16:22:50.916Z,97854.69
2023-05-09T16:25:17.496Z,97863.34
2023-05-09T16:27:44.182Z,97858.84
2023-05-09T16:30:11.027Z,97844.25
2023-05-09T16:32:38.104Z,97842.13
2023-05-09T16:35:05.054Z,97839.53
2023-05-09T16:37:33.453Z,97840.25
2023-05-09T16:40:01.498Z,97841.06
2023-05-09T16:42:28.424Z,97834.56
2023-05-09T16:44:55.774Z,97828.19
2023-05-09T16:47:22.210Z,97826.03
2023-05-09T16:49:48.647Z,97831.22
2023-05-09T16:52:15.356Z,97841.53
2023-05-09T16:54:41.814Z,97847.34
2023-05-09T16:57:08.375Z,97846.53
2023-05-09T16:59:34.856Z,97846.25
2023-05-09T17:02:02.106Z,97843.78
2023-05-09T17:04:29.320Z,97838.56
2023-05-09T17:06:55.921Z,97840.09
2023-05-09T17:09:22.479Z,97840.34
2023-05-09T17:11:48.952Z,97834.91
2023-05-09T17:14:15.525Z,97832.25
2023-05-09T17:16:42.030Z,97833.78
2023-05-09T17:19:08.475Z,97832.97
2023-05-09T17:21:35.295Z,97840.84
2023-05-09T17:24:02.145Z,97836.00
2023-05-09T17:26:29.565Z,97827.06
2023-05-09T17:28:56.158Z,97824.03
2023-05-09T17:31:22.777Z,97826.81
2023-05-09T17:33:49.442Z,97816.34
2023-05-09T17:36:15.924Z,97817.88
2023-05-09T17:38:42.583Z,97805.63
2023-05-09T17:41:09.114Z,97801.94
2023-05-09T17:43:35.580Z,97801.94
2023-05-09T17:46:02.184Z,97800.47
2023-05-09T17:48:29.226Z,97800.94
2023-05-09T17:50:56.217Z,97795.47
2023-05-09T17:53:22.792Z,97798.13
2023-05-09T17:55:50.525Z,97795.63
2023-05-09T17:58:17.039Z,97792.97
2023-05-09T18:00:44.552Z,97790.78
2023-05-09T18:03:11.092Z,97788.41
2023-05-09T18:05:37.986Z,97799.25
2023-05-09T18:08:05.588Z,97789.88
2023-05-09T18:10:32.207Z,97794.03
2023-05-09T18:12:58.742Z,97790.25
2023-05-09T18:15:26.176Z,97789.69
2023-05-09T18:17:54.594Z,97791.88
2023-05-09T18:20:21.116Z,97789.81
2023-05-09T18:22:47.588Z,97793.06
2023-05-09T18:25:14.257Z,97780.50
2023-05-09T18:27:40.729Z,97790.53
2023-05-09T18:30:07.848Z,97790.53
2023-05-09T18:32:34.441Z,97788.34
2023-05-09T18:35:00.940Z,97791.00
2023-05-09T18:37:27.816Z,97784.66
2023-05-09T18:39:54.267Z,97778.56
2023-05-09T18:42:20.846Z,97781.56
2023-05-09T18:44:47.322Z,97791.13
2023-05-09T18:47:13.971Z,97787.09
2023-05-09T18:49:41.200Z,97778.41
2023-05-09T18:52:08.736Z,97783.16
2023-05-09T18:54:38.222Z,97776.13
2023-05-09T18:57:04.780Z,97778.78
2023-05-09T18:59:31.794Z,97777.31
2023-05-09T19:01:58.303Z,97772.38
2023-05-09T19:04:25.282Z,97776.72
2023-05-09T19:06:51.855Z,97775.81
2023-05-09T19:09:18.840Z,97772.94
2023-05-09T19:11:45.324Z,97773.63
2023-05-09T19:14:11.847Z,97770.38
2023-05-09T19:16:38.418Z,97775.94
2023-05-09T19:19:04.914Z,97777.53
2023-05-09T19:21:31.431Z,97777.69
2023-05-09T19:23:57.882Z,97777.19
2023-05-09T19:26:24.550Z,97774.44
2023-05-09T19:28:51.040Z,97775.25
2023-05-09T19:31:18.773Z,97778.13
2023-05-09T19:33:47.484Z,97772.03
2023-05-09T19:36:14.170Z,97773.53
2023-05-09T19:38:40.647Z,97769.47
2023-05-09T19:41:07.119Z,97765.22
2023-05-09T19:43:33.628Z,97768.88
2023-05-09T19:46:00.209Z,97769.94
2023-05-09T19:48:26.791Z,97772.59
2023-05-09T19:50:57.776Z,97767.41
2023-05-09T19:53:25.288Z,97761.31
2023-05-09T19:55:52.181Z,97763.72
2023-05-09T19:58:18.754Z,97761.63
2023-05-09T20:00:45.627Z,97759.34
2023-05-09T20:03:12.317Z,97760.97
2023-05-09T20:05:38.904Z,97756.91
2023-05-09T20:08:05.472Z,97751.63
2023-05-09T20:10:32.966Z,97755.78
2023-05-09T20:13:00.873Z,97753.47
2023-05-09T20:15:27.826Z,97756.91
2023-05-09T20:17:54.441Z,97763.38
2023-05-09T20:20:21.268Z,97777.69
2023-05-09T20:22:47.721Z,97782.63
2023-05-09T20:25:14.756Z,97773.97
2023-05-09T20:27:41.284Z,97773.38
2023-05-09T20:30:08.321Z,97780.09
2023-05-09T20:32:35.084Z,97775.59
2023-05-09T20:35:01.987Z,97779.28
2023-05-09T20:37:28.458Z,97780.88
2023-05-09T20:39:54.929Z,97775.03
2023-05-09T20:42:23.181Z,97772.84
2023-05-09T20:44:51.471Z,97773.63
2023-05-09T20:47:18.037Z,97783.31
2023-05-09T20:49:44.628Z,97790.00
2023-05-09T20:52:11.139Z,97781.22
2023-05-09T20:54:37.691Z,97786.41
2023-05-09T20:57:07.609Z,97791.13
2023-05-09T20:59:34.274Z,97786.63
2023-05-09T21:02:00.807Z,97786.94
2023-05-09T21:04:27.477Z,97797.28
2023-05-09T21:06:54.052Z,97793.38
2023-05-09T21:09:20.594Z,97798.75
2023-05-09T21:11:47.140Z,97795.31
2023-05-09T21:14:13.688Z,97804.06
2023-05-09T21:16:40.257Z,97805.41
2023-05-09T21:19:06.867Z,97807.25
2023-05-09T21:21:33.366Z,97812.19
2023-05-09T21:24:03.108Z,97809.53
2023-05-09T21:26:30.321Z,97808.66
2023-05-09T21:28:56.763Z,97812.78
2023-05-09T21:31:23.325Z,97817.34
2023-05-09T21:33:49.913Z,97824.69
2023-05-09T21:36:16.410Z,97815.72
2023-05-09T21:38:42.959Z,97820.78
2023-05-09T21:41:10.163Z,97818.56
2023-05-09T21:43:37.474Z,97819.25
2023-05-09T21:46:05.176Z,97821.47
2023-05-09T21:48:31.817Z,97825.59
2023-05-09T21:51:01.840Z,97820.66
2023-05-09T21:53:28.388Z,97817.41
2023-05-09T21:55:54.805Z,97824.34
2023-05-09T21:58:21.258Z,97819.78
2023-05-09T22:00:47.729Z,97810.63
2023-05-09T22:03:14.322Z,97818.28
2023-05-09T22:05:41.275Z,97818.22
2023-05-09T22:08:07.824Z,97826.25
2023-05-09T22:10:34.390Z,97822.63
2023-05-09T22:13:01.066Z,97830.38
2023-05-09T22:15:27.851Z,97830.66
2023-05-09T22:17:54.398Z,97829.84
2023-05-09T22:20:21.151Z,97828.91
2023-05-09T22:22:47.642Z,97830.16
2023-05-09T22:25:14.228Z,97827.56
2023-05-09T22:27:40.698Z,97832.63
2023-05-09T22:30:09.178Z,97823.88
2023-05-09T22:32:35.801Z,97827.00
2023-05-09T22:35:02.331Z,97834.06
2023-05-09T22:37:28.814Z,97829.47
2023-05-09T22:39:55.688Z,97830.16
2023-05-09T22:42:22.226Z,97829.63
2023-05-09T22:44:49.763Z,97830.16
2023-05-09T22:47:16.351Z,97832.44
2023-05-09T22:49:45.116Z,97831.19
2023-05-09T22:52:12.545Z,97835.81
2023-05-09T22:54:39.047Z,97840.59
2023-05-09T22:57:05.562Z,97838.53
2023-05-09T22:59:32.113Z,97837.66
2023-05-09T23:01:59.425Z,97838.63
2023-05-09T23:04:26.028Z,97839.81
2023-05-09T23:06:52.520Z,97838.09
2023-05-09T23:09:19.036Z,97846.94
2023-05-09T23:11:45.526Z,97845.16
2023-05-09T23:14:12.276Z,97845.22
2023-05-09T23:16:38.744Z,97850.16
2023-05-09T23:19:05.310Z,97840.69
2023-05-09T23:21:32.586Z,97852.31
2023-05-09T23:23:59.325Z,97855.63
2023-05-09T23:26:25.776Z,97847.25
2023-05-09T23:28:55.037Z,97849.53
2023-05-09T23:31:21.713Z,97854.00
2023-05-09T23:33:48.309Z,97847.59
2023-05-09T23:36:15.291Z,97852.16
2023-05-09T23:38:41.917Z,97852.38
2023-05-09T23:41:08.404Z,97861.19
2023-05-09T23:43:34.866Z,97855.56
2023-05-09T23:46:01.867Z,97848.84
2023-05-09T23:48:28.364Z,97848.03
2023-05-09T23:50:54.798Z,97850.75
2023-05-09T23:53:21.348Z,97847.88
2023-05-09T23:55:47.813Z,97849.59
2023-05-09T23:58:14.429Z,97852.31
